Aurora State Airport Aurora US
ICAO: KUAO
IATA: UAO
Category: Medium
Scheduled Services: No

Elevation: 200 ft
TransAlt. 18000 ft.

Airport Communications:
PORTLAND APP/DEP:126
ASOS:118.525
PORTLAND CLNC DEL:119.95
CTAF/UNICOM:122.7

KUAO Zoom In..

If you have problems with the map follow the link
https://www.worldairports.se/pages/airport.php?
ICAO=KUAO

Runways:

(A) RW 17 length 5004 ft width 100 ft
LOC 111.15 / hdg 169

(B) RW 35 length 5004 ft width 100 ft
LOC 111.15 / hdg 349

Location; KUAO
Day. 18 / Time. 01.53 Zulu
* Altimeter: 30.26
* Temperature: 06° c. 42.8°f.
* Wind from: 010° Speed 04 kn.
Dewpoint: 00° c.
Visibility: 10 Statute Miles.
Clouds: Broken 2800 ft.
Clouds: Broken 3600 ft.

KUAO 180153Z 01004KT 10SM BKN028 BKN036 06/00 A3026 RMK AO2 SLP247 T00560000


Wind From 010°
Speed 04 kn.

 
 
jpsmedia.com for Web Design worldairports.se 2019   terms of use